Anchor Point, Alaska
Current Conditions -  °F | °C
As of 8:53 PM on Thursday 30 Oct 2014 (Local Time) from PAHO Reporting Station
Overcast Overcast  
Wind Chill: 35°   Ceiling: 4500
Heat Index: 35°   Visibility: 10mi
Dew Point: 20°   Wind: 0mph
Humidity: 54%   Direction: NA
Pressure: 29.39"   Gusts: NA
Location:  59.77°N, 151.82°W
Report Text: PAHO 310453Z 00000KT 10SM OVC045 02/M07 A2939 RMK AO2 SLP953 T00171067
Loading
Personal Weather Stations






























Interactive Weather Map New forecast layout! Learn more

10-Day Weather Forecast

Advertisements
Track Severe Weather on mobile